createdAt,value
2023-04-08T00:00:02.644Z,1.90
2023-04-08T00:02:30.189Z,2.08
2023-04-08T00:04:57.521Z,2.00
2023-04-08T00:07:24.623Z,2.30
2023-04-08T00:09:51.829Z,2.65
2023-04-08T00:12:19.136Z,3.08
2023-04-08T00:14:46.257Z,2.95
2023-04-08T00:17:13.619Z,2.78
2023-04-08T00:19:42.549Z,2.88
2023-04-08T00:22:09.645Z,2.85
2023-04-08T00:24:36.813Z,3.03
2023-04-08T00:27:04.530Z,2.90
2023-04-08T00:29:31.561Z,2.65
2023-04-08T00:31:58.635Z,2.85
2023-04-08T00:34:26.180Z,3.10
2023-04-08T00:36:54.512Z,3.38
2023-04-08T00:39:21.668Z,2.72
2023-04-08T00:41:48.738Z,3.20
2023-04-08T00:44:16.596Z,2.78
2023-04-08T00:46:44.128Z,2.72
2023-04-08T00:49:13.198Z,2.88
2023-04-08T00:51:40.964Z,2.67
2023-04-08T00:54:11.080Z,2.45
2023-04-08T00:56:38.705Z,2.53
2023-04-08T00:59:06.588Z,2.47
2023-04-08T01:02:13.929Z,2.75
2023-04-08T01:05:31.004Z,2.28
2023-04-08T01:08:00.241Z,2.53
2023-04-08T01:10:34.718Z,2.50
2023-04-08T01:13:10.334Z,2.70
2023-04-08T01:15:41.392Z,2.72
2023-04-08T01:18:13.617Z,2.63
2023-04-08T01:20:43.081Z,3.83
2023-04-08T01:23:24.884Z,3.35
2023-04-08T01:26:10.932Z,3.40
2023-04-08T01:28:39.749Z,2.97
2023-04-08T01:31:07.643Z,3.58
2023-04-08T01:33:35.947Z,3.55
2023-04-08T01:36:04.564Z,3.17
2023-04-08T01:38:33.807Z,3.30
2023-04-08T01:41:01.588Z,3.33
2023-04-08T01:43:29.690Z,3.67
2023-04-08T01:45:58.756Z,2.92
2023-04-08T01:48:28.508Z,2.92
2023-04-08T01:50:57.113Z,3.40
2023-04-08T01:53:24.674Z,3.20
2023-04-08T01:56:03.955Z,3.40
2023-04-08T01:58:39.383Z,3.08
2023-04-08T02:01:12.813Z,3.40
2023-04-08T02:03:43.700Z,3.33
2023-04-08T02:06:11.083Z,3.53
2023-04-08T02:08:38.123Z,3.22
2023-04-08T02:11:05.655Z,3.70
2023-04-08T02:13:33.009Z,3.80
2023-04-08T02:16:24.591Z,3.28
2023-04-08T02:19:24.648Z,3.60
2023-04-08T02:21:59.984Z,3.17
2023-04-08T02:24:27.841Z,3.22
2023-04-08T02:26:57.060Z,3.25
2023-04-08T02:29:24.852Z,3.53
2023-04-08T02:31:53.050Z,3.50
2023-04-08T02:34:22.261Z,3.53
2023-04-08T02:36:51.303Z,3.22
2023-04-08T02:39:18.522Z,3.70
2023-04-08T02:41:45.565Z,3.75
2023-04-08T02:44:12.754Z,3.63
2023-04-08T02:46:39.978Z,3.58
2023-04-08T02:49:07.021Z,3.38
2023-04-08T02:51:34.094Z,3.80
2023-04-08T02:54:01.585Z,3.60
2023-04-08T02:56:28.647Z,3.78
2023-04-08T02:58:56.369Z,3.90
2023-04-08T03:01:23.426Z,3.90
2023-04-08T03:03:50.749Z,4.10
2023-04-08T03:06:18.250Z,3.90
2023-04-08T03:08:45.339Z,4.15
2023-04-08T03:11:12.477Z,4.55
2023-04-08T03:13:39.582Z,4.22
2023-04-08T03:16:07.422Z,4.93
2023-04-08T03:18:34.554Z,5.25
2023-04-08T03:21:03.348Z,4.55
2023-04-08T03:23:30.797Z,5.28
2023-04-08T03:25:57.971Z,4.80
2023-04-08T03:28:25.093Z,4.95
2023-04-08T03:30:52.437Z,4.90
2023-04-08T03:33:19.465Z,5.20
2023-04-08T03:35:46.575Z,5.15
2023-04-08T03:38:13.908Z,4.50
2023-04-08T03:40:41.067Z,4.95
2023-04-08T03:43:08.917Z,4.88
2023-04-08T03:45:36.087Z,4.65
2023-04-08T03:48:03.938Z,4.45
2023-04-08T03:50:31.164Z,4.65
2023-04-08T03:52:58.328Z,4.15
2023-04-08T03:55:25.540Z,4.05
2023-04-08T03:57:52.724Z,4.50
2023-04-08T04:00:19.763Z,4.20
2023-04-08T04:02:47.014Z,4.78
2023-04-08T04:05:14.177Z,4.85
2023-04-08T04:07:41.251Z,4.35
2023-04-08T04:10:10.414Z,4.35
2023-04-08T04:12:37.641Z,4.78
2023-04-08T04:15:05.619Z,4.90
2023-04-08T04:17:32.975Z,4.57
2023-04-08T04:20:00.180Z,4.28
2023-04-08T04:22:27.442Z,4.22
2023-04-08T04:24:54.476Z,4.18
2023-04-08T04:27:21.496Z,4.15
2023-04-08T04:29:48.528Z,4.35
2023-04-08T04:32:16.100Z,4.28
2023-04-08T04:34:44.489Z,4.75
2023-04-08T04:37:11.982Z,4.47
2023-04-08T04:39:40.126Z,4.20
2023-04-08T04:42:07.164Z,4.30
2023-04-08T04:44:34.488Z,4.07
2023-04-08T04:47:01.728Z,4.75
2023-04-08T04:49:28.978Z,4.43
2023-04-08T04:51:56.262Z,4.80
2023-04-08T04:54:23.297Z,4.57
2023-04-08T04:56:50.586Z,4.38
2023-04-08T04:59:17.633Z,4.53
2023-04-08T05:01:44.799Z,4.60
2023-04-08T05:04:11.856Z,5.28
2023-04-08T05:06:39.012Z,4.43
2023-04-08T05:09:06.071Z,4.78
2023-04-08T05:11:33.182Z,5.05
2023-04-08T05:14:00.230Z,4.88
2023-04-08T05:16:27.374Z,5.00
2023-04-08T05:18:54.525Z,4.53
2023-04-08T05:21:21.722Z,4.65
2023-04-08T05:23:48.805Z,4.45
2023-04-08T05:26:16.619Z,5.13
2023-04-08T05:28:43.851Z,4.90
2023-04-08T05:31:11.989Z,4.80
2023-04-08T05:33:39.196Z,4.60
2023-04-08T05:36:06.556Z,4.63
2023-04-08T05:38:33.968Z,4.85
2023-04-08T05:41:01.467Z,5.00
2023-04-08T05:43:28.586Z,4.85
2023-04-08T05:45:56.285Z,5.30
2023-04-08T05:48:23.380Z,5.35
2023-04-08T05:50:50.727Z,5.10
2023-04-08T05:53:17.994Z,5.22
2023-04-08T05:55:45.026Z,5.35
2023-04-08T05:58:12.237Z,4.65
2023-04-08T06:00:39.691Z,5.03
2023-04-08T06:03:07.120Z,5.03
2023-04-08T06:05:36.720Z,5.15
2023-04-08T06:08:04.035Z,4.97
2023-04-08T06:10:31.105Z,5.13
2023-04-08T06:13:00.826Z,5.18
2023-04-08T06:15:28.305Z,5.03
2023-04-08T06:17:55.657Z,5.20
2023-04-08T06:20:23.024Z,5.43
2023-04-08T06:22:50.063Z,5.43
2023-04-08T06:25:17.239Z,5.47
2023-04-08T06:27:44.658Z,4.70
2023-04-08T06:30:12.158Z,4.75
2023-04-08T06:32:39.463Z,5.40
2023-04-08T06:35:07.750Z,4.55
2023-04-08T06:37:38.658Z,4.80
2023-04-08T06:40:07.361Z,4.72
2023-04-08T06:42:34.435Z,4.40
2023-04-08T06:45:01.593Z,5.22
2023-04-08T06:47:28.761Z,5.10
2023-04-08T06:49:55.977Z,5.35
2023-04-08T06:52:23.083Z,6.00
2023-04-08T06:54:50.373Z,5.97
2023-04-08T06:57:17.438Z,5.60
2023-04-08T06:59:44.807Z,5.63
2023-04-08T07:02:12.244Z,5.50
2023-04-08T07:04:39.241Z,5.03
2023-04-08T07:07:06.382Z,5.65
2023-04-08T07:09:33.384Z,6.10
2023-04-08T07:12:00.423Z,8.90
2023-04-08T07:14:27.497Z,7.82
2023-04-08T07:16:54.611Z,7.20
2023-04-08T07:19:22.928Z,6.63
2023-04-08T07:21:50.633Z,5.47
2023-04-08T07:24:17.685Z,5.00
2023-04-08T07:26:45.189Z,5.57
2023-04-08T07:29:12.271Z,6.45
2023-04-08T07:31:39.567Z,5.45
2023-04-08T07:34:06.726Z,5.68
2023-04-08T07:36:33.910Z,5.93
2023-04-08T07:39:01.040Z,6.35
2023-04-08T07:41:28.393Z,5.95
2023-04-08T07:43:56.249Z,5.68
2023-04-08T07:46:24.883Z,6.28
2023-04-08T07:48:52.313Z,6.00
2023-04-08T07:51:20.308Z,6.65
2023-04-08T07:53:48.461Z,6.57
2023-04-08T07:56:18.302Z,6.40
2023-04-08T07:58:47.654Z,6.80
2023-04-08T08:01:19.811Z,5.95
2023-04-08T08:03:50.907Z,5.32
2023-04-08T08:06:18.843Z,5.47
2023-04-08T08:08:45.975Z,5.25
2023-04-08T08:11:13.645Z,5.05
2023-04-08T08:13:41.161Z,5.10
2023-04-08T08:16:12.088Z,4.88
2023-04-08T08:18:41.132Z,4.95
2023-04-08T08:21:09.222Z,5.22
2023-04-08T08:23:37.751Z,5.32
2023-04-08T08:26:09.881Z,5.30
2023-04-08T08:28:38.628Z,5.35
2023-04-08T08:31:06.700Z,5.05
2023-04-08T08:33:34.225Z,5.13
2023-04-08T08:36:01.912Z,5.15
2023-04-08T08:38:29.527Z,5.22
2023-04-08T08:40:59.739Z,5.05
2023-04-08T08:43:28.168Z,4.80
2023-04-08T08:45:55.954Z,5.53
2023-04-08T08:48:23.286Z,4.90
2023-04-08T08:50:51.148Z,5.32
2023-04-08T08:53:20.046Z,4.97
2023-04-08T08:58:17.276Z,5.63
2023-04-08T09:00:45.188Z,6.10
2023-04-08T09:03:27.963Z,5.70
2023-04-08T09:06:01.335Z,5.32
2023-04-08T09:08:36.408Z,5.47
2023-04-08T09:11:21.845Z,5.57
2023-04-08T09:13:49.491Z,5.97
2023-04-08T09:16:20.595Z,5.68
2023-04-08T09:18:49.491Z,6.00
2023-04-08T09:21:18.274Z,6.15
2023-04-08T09:23:53.557Z,5.53
2023-04-08T09:26:25.377Z,6.00
2023-04-08T09:29:24.065Z,6.63
2023-04-08T09:32:00.070Z,5.93
2023-04-08T09:34:29.638Z,8.95
2023-04-08T09:36:57.146Z,8.43
2023-04-08T09:39:24.544Z,8.80
2023-04-08T09:41:53.090Z,7.72
2023-04-08T09:44:22.119Z,6.40
2023-04-08T09:46:59.950Z,6.57
2023-04-08T09:49:39.106Z,6.32
2023-04-08T09:52:23.460Z,5.70
2023-04-08T09:55:02.537Z,5.38
2023-04-08T09:57:38.116Z,5.43
2023-04-08T10:00:16.646Z,5.38
2023-04-08T10:03:25.187Z,6.18
2023-04-08T10:05:54.666Z,6.55
2023-04-08T10:08:22.855Z,6.88
2023-04-08T10:10:50.449Z,6.55
2023-04-08T10:13:17.821Z,6.65
2023-04-08T10:15:47.859Z,6.75
2023-04-08T10:18:18.458Z,6.35
2023-04-08T10:20:49.426Z,7.03
2023-04-08T10:23:21.375Z,6.75
2023-04-08T10:25:49.507Z,6.32
2023-04-08T10:28:19.716Z,6.68
2023-04-08T10:30:55.713Z,6.65
2023-04-08T10:33:30.443Z,6.82
2023-04-08T10:36:12.622Z,8.38
2023-04-08T10:38:43.138Z,7.82
2023-04-08T10:41:14.600Z,7.00
2023-04-08T10:43:41.821Z,7.38
2023-04-08T10:46:12.041Z,7.28
2023-04-08T10:48:39.450Z,7.43
2023-04-08T10:51:06.834Z,7.50
2023-04-08T10:53:37.846Z,6.85
2023-04-08T10:56:18.095Z,5.90
2023-04-08T10:58:55.206Z,6.35
2023-04-08T11:01:23.716Z,5.53
2023-04-08T11:03:51.757Z,5.80
2023-04-08T11:06:19.828Z,6.05
2023-04-08T11:08:47.515Z,5.28
2023-04-08T11:11:15.577Z,5.72
2023-04-08T11:13:52.896Z,5.82
2023-04-08T11:16:23.101Z,5.55
2023-04-08T11:18:51.994Z,5.85
2023-04-08T11:21:19.202Z,6.70
2023-04-08T11:23:50.310Z,5.95
2023-04-08T11:26:19.842Z,6.28
2023-04-08T11:28:51.048Z,6.25
2023-04-08T11:31:23.511Z,6.32
2023-04-08T11:33:55.515Z,5.75
2023-04-08T11:36:22.864Z,5.35
2023-04-08T11:38:50.431Z,5.93
2023-04-08T11:41:17.761Z,6.38
2023-04-08T11:43:56.653Z,6.13
2023-04-08T11:46:24.598Z,7.03
2023-04-08T11:49:06.906Z,6.80
2023-04-08T11:51:36.054Z,6.05
2023-04-08T11:54:07.553Z,5.70
2023-04-08T11:56:48.835Z,5.82
2023-04-08T11:59:16.059Z,6.25
2023-04-08T12:01:43.337Z,6.07
2023-04-08T12:04:11.866Z,7.13
2023-04-08T12:06:39.069Z,7.65
2023-04-08T12:09:06.538Z,6.25
2023-04-08T12:11:33.626Z,5.75
2023-04-08T12:14:00.883Z,5.72
2023-04-08T12:16:28.054Z,5.82
2023-04-08T12:18:55.717Z,5.57
2023-04-08T12:21:23.209Z,6.60
2023-04-08T12:23:50.852Z,5.97
2023-04-08T12:26:18.224Z,5.90
2023-04-08T12:28:46.003Z,5.60
2023-04-08T12:31:13.562Z,5.47
2023-04-08T12:33:41.065Z,6.25
2023-04-08T12:36:08.305Z,5.82
2023-04-08T12:38:35.595Z,7.22
2023-04-08T12:41:02.838Z,6.97
2023-04-08T12:43:30.067Z,6.57
2023-04-08T12:45:57.806Z,6.32
2023-04-08T12:48:24.896Z,5.88
2023-04-08T12:50:51.960Z,6.57
2023-04-08T12:53:19.359Z,5.40
2023-04-08T12:55:48.623Z,6.05
2023-04-08T12:58:17.043Z,5.38
2023-04-08T13:00:46.862Z,5.47
2023-04-08T13:03:17.346Z,6.22
2023-04-08T13:05:45.125Z,5.88
2023-04-08T13:08:12.489Z,6.10
2023-04-08T13:10:39.719Z,6.15
2023-04-08T13:13:06.848Z,6.93
2023-04-08T13:15:34.019Z,9.48
2023-04-08T13:18:01.502Z,10.07
2023-04-08T13:20:28.697Z,8.40
2023-04-08T13:22:55.882Z,9.52
2023-04-08T13:25:23.192Z,8.27
2023-04-08T13:27:50.429Z,7.45
2023-04-08T13:30:17.622Z,6.88
2023-04-08T13:32:44.926Z,6.70
2023-04-08T13:35:12.064Z,6.88
2023-04-08T13:37:39.100Z,9.15
2023-04-08T13:40:08.983Z,7.07
2023-04-08T13:42:36.178Z,7.28
2023-04-08T13:45:03.497Z,6.50
2023-04-08T13:47:31.264Z,6.43
2023-04-08T13:49:58.508Z,7.70
2023-04-08T13:52:25.701Z,8.50
2023-04-08T13:54:52.857Z,8.25
2023-04-08T13:57:20.485Z,13.90
2023-04-08T13:59:47.623Z,8.50
2023-04-08T14:02:14.909Z,8.82
2023-04-08T14:04:42.357Z,8.98
2023-04-08T14:07:09.754Z,7.32
2023-04-08T14:09:37.087Z,7.13
2023-04-08T14:12:04.559Z,6.82
2023-04-08T14:14:31.968Z,6.28
2023-04-08T14:16:59.155Z,5.68
2023-04-08T14:19:26.398Z,5.40
2023-04-08T14:21:53.423Z,5.88
2023-04-08T14:24:20.549Z,5.68
2023-04-08T14:26:47.585Z,5.72
2023-04-08T14:29:14.721Z,5.45
2023-04-08T14:31:41.873Z,5.78
2023-04-08T14:34:08.937Z,5.95
2023-04-08T14:36:36.466Z,5.53
2023-04-08T14:39:03.642Z,6.07
2023-04-08T14:41:31.053Z,6.25
2023-04-08T14:43:58.487Z,5.80
2023-04-08T14:46:28.741Z,6.05
2023-04-08T14:48:56.366Z,5.38
2023-04-08T14:51:23.439Z,5.53
2023-04-08T14:53:50.481Z,4.75
2023-04-08T14:56:17.566Z,5.72
2023-04-08T14:58:44.690Z,5.00
2023-04-08T15:01:12.058Z,5.22
2023-04-08T15:03:39.357Z,5.30
2023-04-08T15:06:06.677Z,5.43
2023-04-08T15:08:35.214Z,5.13
2023-04-08T15:11:02.394Z,5.65
2023-04-08T15:13:29.427Z,5.40
2023-04-08T15:15:56.719Z,5.40
2023-04-08T15:18:24.023Z,5.75
2023-04-08T15:20:51.614Z,5.63
2023-04-08T15:23:18.747Z,5.30
2023-04-08T15:25:46.500Z,5.43
2023-04-08T15:28:13.599Z,4.90
2023-04-08T15:30:40.909Z,5.97
2023-04-08T15:33:08.422Z,5.80
2023-04-08T15:35:39.102Z,5.63
2023-04-08T15:38:06.495Z,5.80
2023-04-08T15:40:34.695Z,6.60
2023-04-08T15:43:02.009Z,5.97
2023-04-08T15:45:29.084Z,6.18
2023-04-08T15:47:56.180Z,6.18
2023-04-08T15:50:23.384Z,5.40
2023-04-08T15:52:50.541Z,5.60
2023-04-08T15:55:18.036Z,5.22
2023-04-08T15:57:45.164Z,5.10
2023-04-08T16:00:14.382Z,5.72
2023-04-08T16:02:43.587Z,5.90
2023-04-08T16:05:12.550Z,5.82
2023-04-08T16:07:39.705Z,5.72
2023-04-08T16:10:07.629Z,6.47
2023-04-08T16:12:35.027Z,6.40
2023-04-08T16:15:02.901Z,6.10
2023-04-08T16:17:30.079Z,7.35
2023-04-08T16:19:57.507Z,9.27
2023-04-08T16:22:24.548Z,9.68
2023-04-08T16:24:53.373Z,8.32
2023-04-08T16:27:20.554Z,8.68
2023-04-08T16:29:48.328Z,7.28
2023-04-08T16:32:15.405Z,7.15
2023-04-08T16:34:42.489Z,7.75
2023-04-08T16:37:09.610Z,5.90
2023-04-08T16:39:36.644Z,6.68
2023-04-08T16:42:04.018Z,9.38
2023-04-08T16:44:31.099Z,9.27
2023-04-08T16:46:58.155Z,7.57
2023-04-08T16:49:25.449Z,7.57
2023-04-08T16:51:52.571Z,9.23
2023-04-08T16:54:19.631Z,8.30
2023-04-08T16:56:46.801Z,7.85
2023-04-08T16:59:14.105Z,7.47
2023-04-08T17:01:41.569Z,9.13
2023-04-08T17:04:08.790Z,6.82
2023-04-08T17:06:36.597Z,6.40
2023-04-08T17:09:04.333Z,6.40
2023-04-08T17:11:31.720Z,5.90
2023-04-08T17:13:59.694Z,5.68
2023-04-08T17:16:26.995Z,5.43
2023-04-08T17:18:54.269Z,5.28
2023-04-08T17:21:21.623Z,5.57
2023-04-08T17:23:49.453Z,5.88
2023-04-08T17:26:16.690Z,4.88
2023-04-08T17:28:44.859Z,4.50
2023-04-08T17:31:12.084Z,4.88
2023-04-08T17:33:39.361Z,5.15
2023-04-08T17:36:07.233Z,4.80
2023-04-08T17:38:36.086Z,4.72
2023-04-08T17:41:08.150Z,5.35
2023-04-08T17:43:35.648Z,5.50
2023-04-08T17:46:02.776Z,4.90
2023-04-08T17:48:30.073Z,4.68
2023-04-08T17:51:06.131Z,4.32
2023-04-08T17:53:34.342Z,4.93
2023-04-08T17:56:01.543Z,5.25
2023-04-08T17:58:28.748Z,5.65
2023-04-08T18:00:55.897Z,5.60
2023-04-08T18:03:23.402Z,4.95
2023-04-08T18:05:50.810Z,5.53
2023-04-08T18:08:18.234Z,6.10
2023-04-08T18:10:46.770Z,6.55
2023-04-08T18:13:14.091Z,5.47
2023-04-08T18:15:41.311Z,6.18
2023-04-08T18:18:08.437Z,5.15
2023-04-08T18:20:36.847Z,5.63
2023-04-08T18:23:04.513Z,5.40
2023-04-08T18:25:32.536Z,5.88
2023-04-08T18:27:59.740Z,5.55
2023-04-08T18:30:27.425Z,5.43
2023-04-08T18:32:54.720Z,5.53
2023-04-08T18:35:21.946Z,6.18
2023-04-08T18:37:49.085Z,5.82
2023-04-08T18:40:16.238Z,6.35
2023-04-08T18:42:43.293Z,6.50
2023-04-08T18:45:10.536Z,5.95
2023-04-08T18:47:37.924Z,5.82
2023-04-08T18:50:06.550Z,5.60
2023-04-08T18:52:33.906Z,5.70
2023-04-08T18:55:00.994Z,5.95
2023-04-08T18:57:28.066Z,6.10
2023-04-08T18:59:55.134Z,5.55
2023-04-08T19:02:22.935Z,5.75
2023-04-08T19:04:50.227Z,5.85
2023-04-08T19:07:17.894Z,6.47
2023-04-08T19:09:44.939Z,6.03
2023-04-08T19:12:12.087Z,6.40
2023-04-08T19:14:39.802Z,6.10
2023-04-08T19:17:06.893Z,6.03
2023-04-08T19:19:34.670Z,5.70
2023-04-08T19:22:05.788Z,4.75
2023-04-08T19:24:33.833Z,5.53
2023-04-08T19:27:01.474Z,5.10
2023-04-08T19:29:32.862Z,5.38
2023-04-08T19:32:00.052Z,5.45
2023-04-08T19:34:27.351Z,5.20
2023-04-08T19:36:54.670Z,5.18
2023-04-08T19:39:25.966Z,5.18
2023-04-08T19:41:54.166Z,5.72
2023-04-08T19:44:21.454Z,5.95
2023-04-08T19:46:48.791Z,5.28
2023-04-08T19:49:16.063Z,6.03
2023-04-08T19:51:43.108Z,5.53
2023-04-08T19:54:10.210Z,5.50
2023-04-08T19:56:37.559Z,5.20
2023-04-08T19:59:04.848Z,5.07
2023-04-08T20:01:35.841Z,5.32
2023-04-08T20:04:03.305Z,6.18
2023-04-08T20:06:30.505Z,5.78
2023-04-08T20:08:57.649Z,6.35
2023-04-08T20:11:24.747Z,6.47
2023-04-08T20:13:51.930Z,6.18
2023-04-08T20:16:19.820Z,5.90
2023-04-08T20:18:47.185Z,5.95
2023-04-08T20:21:15.727Z,5.70
2023-04-08T20:23:45.850Z,6.07
2023-04-08T20:26:14.363Z,5.90
2023-04-08T20:28:43.276Z,6.22
2023-04-08T20:31:10.498Z,6.28
2023-04-08T20:33:43.753Z,6.38
2023-04-08T20:36:12.527Z,6.47
2023-04-08T20:38:40.773Z,5.72
2023-04-08T20:41:07.870Z,5.90
2023-04-08T20:43:34.878Z,6.38
2023-04-08T20:46:01.989Z,6.07
2023-04-08T20:48:29.572Z,5.80
2023-04-08T20:50:57.653Z,5.68
2023-04-08T20:53:26.398Z,5.75
2023-04-08T20:55:53.592Z,5.68
2023-04-08T20:58:20.812Z,7.22
2023-04-08T21:00:48.140Z,7.00
2023-04-08T21:03:15.451Z,7.95
2023-04-08T21:05:43.069Z,8.15
2023-04-08T21:08:10.540Z,7.75
2023-04-08T21:10:37.693Z,8.57
2023-04-08T21:13:05.392Z,7.60
2023-04-08T21:15:32.728Z,8.63
2023-04-08T21:17:59.851Z,9.38
2023-04-08T21:20:27.033Z,9.10
2023-04-08T21:22:54.158Z,9.30
2023-04-08T21:25:21.256Z,7.82
2023-04-08T21:27:48.406Z,8.02
2023-04-08T21:30:17.002Z,8.25
2023-04-08T21:32:44.232Z,8.70
2023-04-08T21:35:11.338Z,9.82
2023-04-08T21:37:38.445Z,9.73
2023-04-08T21:40:06.646Z,8.75
2023-04-08T21:42:33.893Z,8.90
2023-04-08T21:45:00.985Z,8.18
2023-04-08T21:47:28.104Z,7.93
2023-04-08T21:49:56.082Z,7.97
2023-04-08T21:52:23.263Z,7.22
2023-04-08T21:54:51.688Z,6.90
2023-04-08T21:57:19.675Z,6.00
2023-04-08T21:59:46.717Z,7.13
2023-04-08T22:02:13.909Z,7.00
2023-04-08T22:04:41.133Z,6.65
2023-04-08T22:07:08.592Z,6.30
2023-04-08T22:09:35.828Z,5.97
2023-04-08T22:12:03.038Z,5.68
2023-04-08T22:14:30.429Z,5.25
2023-04-08T22:16:57.790Z,5.63
2023-04-08T22:19:25.025Z,5.32
2023-04-08T22:21:52.095Z,5.82
2023-04-08T22:24:20.185Z,4.97
2023-04-08T22:26:47.373Z,5.68
2023-04-08T22:29:14.466Z,5.30
2023-04-08T22:31:41.668Z,5.57
2023-04-08T22:34:08.813Z,5.35
2023-04-08T22:36:36.077Z,4.95
2023-04-08T22:39:03.919Z,5.93
2023-04-08T22:41:31.434Z,5.70
2023-04-08T22:43:58.588Z,5.55
2023-04-08T22:46:25.863Z,5.32
2023-04-08T22:48:53.184Z,5.65
2023-04-08T22:51:20.961Z,5.40
2023-04-08T22:53:48.378Z,5.45
2023-04-08T22:56:15.750Z,5.07
2023-04-08T22:58:43.104Z,5.10
2023-04-08T23:01:18.327Z,5.00
2023-04-08T23:03:45.542Z,5.30
2023-04-08T23:06:12.771Z,5.00
2023-04-08T23:08:40.083Z,4.85
2023-04-08T23:11:08.715Z,5.47
2023-04-08T23:13:36.040Z,5.93
2023-04-08T23:16:03.397Z,4.57
2023-04-08T23:18:30.497Z,4.78
2023-04-08T23:20:58.648Z,5.43
2023-04-08T23:23:26.106Z,5.43
2023-04-08T23:25:55.730Z,5.10
2023-04-08T23:28:23.533Z,4.63
2023-04-08T23:30:50.707Z,4.57
2023-04-08T23:33:17.805Z,4.57
2023-04-08T23:35:45.059Z,4.28
2023-04-08T23:38:12.226Z,4.68
2023-04-08T23:40:39.470Z,4.60
2023-04-08T23:43:06.538Z,4.93
2023-04-08T23:45:34.136Z,5.35
2023-04-08T23:48:01.324Z,5.07
2023-04-08T23:50:28.368Z,5.28
2023-04-08T23:52:55.725Z,4.95
2023-04-08T23:55:22.848Z,5.25
2023-04-08T23:57:50.910Z,5.60
